Time;durP1;ratioP1;P1;durP2;ratioP2;P2;SDS_P1;SDS_P2;PMS_P1;PMS_P2;Temp;Humidity;BMP_temperature;BMP_pressure;BME280_temperature;BME280_humidity;BME280_pressure;Samples;Min_cycle;Max_cycle;Signal;HPM_P1;HPM_P2
2023/12/25 00:00:12;;;;;;;16.98;2.67;;;13.40;91.30;;;;;;9177897;19;20138;-77
2023/12/25 00:03:23;;;;;;;14.18;2.75;;;13.40;91.30;;;;;;9176166;19;20014;-76
2023/12/25 00:06:45;;;;;;;16.13;2.83;;;13.40;91.30;;;;;;9177461;19;20026;-76
2023/12/25 00:09:57;;;;;;;11.88;2.40;;;13.40;91.30;;;;;;9177128;19;20014;-77
2023/12/25 00:13:03;;;;;;;15.68;2.33;;;13.40;91.30;;;;;;9179092;19;20068;-76
2023/12/25 00:16:13;;;;;;;12.32;2.35;;;13.40;91.30;;;;;;9177071;19;20105;-77
2023/12/25 00:19:26;;;;;;;12.07;2.03;;;;;;;;;;9176114;19;20380;-76
2023/12/25 00:22:35;;;;;;;13.05;1.75;;;13.40;91.10;;;;;;9176659;19;20057;-75
2023/12/25 00:25:43;;;;;;;7.72;2.25;;;13.40;91.30;;;;;;9176688;19;20643;-75
2023/12/25 00:28:51;;;;;;;8.77;1.23;;;13.40;91.30;;;;;;9178337;19;20041;-77
2023/12/25 00:31:56;;;;;;;16.65;1.85;;;13.40;91.20;;;;;;9177519;19;20022;-75
2023/12/25 00:35:04;;;;;;;10.20;1.60;;;13.40;91.20;;;;;;9176278;19;20022;-76
2023/12/25 00:38:09;;;;;;;13.27;1.38;;;13.40;91.20;;;;;;9175492;19;20373;-75
2023/12/25 00:41:20;;;;;;;9.90;1.95;;;13.40;91.20;;;;;;9175774;19;20022;-75
2023/12/25 00:44:25;;;;;;;8.30;2.22;;;13.40;91.10;;;;;;9176519;19;20082;-78
2023/12/25 00:47:33;;;;;;;8.45;1.85;;;13.40;91.10;;;;;;9177416;19;20022;-75
2023/12/25 00:50:39;;;;;;;10.70;1.90;;;13.40;91.10;;;;;;9175899;19;20006;-75
2023/12/25 00:53:47;;;;;;;6.35;1.05;;;13.40;91.10;;;;;;9176168;19;20015;-75
2023/12/25 00:56:55;;;;;;;10.50;2.17;;;13.40;91.10;;;;;;9176446;19;20479;-71
2023/12/25 01:00:03;;;;;;;7.25;1.88;;;13.40;91.10;;;;;;9175587;19;20026;-71
2023/12/25 01:03:08;;;;;;;10.65;1.70;;;13.40;91.10;;;;;;9172384;19;20021;-71
2023/12/25 01:06:16;;;;;;;11.23;1.30;;;13.40;91.10;;;;;;9174267;19;20020;-72
2023/12/25 01:09:23;;;;;;;11.90;3.25;;;13.40;91.00;;;;;;9174635;19;20395;-72
2023/12/25 01:12:33;;;;;;;8.05;1.83;;;13.30;91.00;;;;;;9174092;19;20015;-73
2023/12/25 01:15:39;;;;;;;3.63;1.20;;;13.40;91.00;;;;;;9173996;19;20102;-71
2023/12/25 01:18:47;;;;;;;11.05;1.75;;;13.30;91.00;;;;;;9174304;19;20018;-72
2023/12/25 01:21:53;;;;;;;12.63;1.67;;;13.40;91.00;;;;;;9173551;19;20010;-71
2023/12/25 01:25:00;;;;;;;8.63;1.67;;;13.30;91.00;;;;;;9175702;19;20078;-72
2023/12/25 01:28:09;;;;;;;11.77;1.95;;;13.40;91.00;;;;;;9174268;19;20433;-75
2023/12/25 01:31:16;;;;;;;13.65;1.92;;;13.30;90.90;;;;;;9176067;19;20015;-72
2023/12/25 01:34:23;;;;;;;11.35;1.70;;;13.30;90.90;;;;;;9173900;19;20015;-73
2023/12/25 01:37:30;;;;;;;15.52;2.35;;;13.30;90.90;;;;;;9175109;19;20018;-74
2023/12/25 01:40:39;;;;;;;11.38;1.95;;;13.30;90.90;;;;;;9172482;19;20015;-71
2023/12/25 01:43:50;;;;;;;10.23;2.15;;;13.30;90.90;;;;;;9172156;19;20010;-72
2023/12/25 01:46:55;;;;;;;7.15;2.00;;;13.30;90.90;;;;;;9176186;19;20019;-72
2023/12/25 01:50:03;;;;;;;12.23;2.30;;;13.30;90.90;;;;;;9183089;19;20571;-71
2023/12/25 01:53:09;;;;;;;9.82;2.80;;;13.30;90.80;;;;;;9184768;19;20011;-72
2023/12/25 01:56:17;;;;;;;7.28;1.73;;;13.30;90.80;;;;;;9182533;19;20029;-73
2023/12/25 01:59:28;;;;;;;6.57;2.10;;;13.30;90.80;;;;;;9182259;19;20514;-73
2023/12/25 02:02:35;;;;;;;9.48;1.40;;;13.30;90.80;;;;;;9175589;19;20032;-70
2023/12/25 02:05:41;;;;;;;11.85;1.52;;;13.20;90.70;;;;;;9182052;19;20021;-72
2023/12/25 02:08:50;;;;;;;11.45;1.92;;;13.20;90.70;;;;;;9180927;19;20019;-72
2023/12/25 02:11:56;;;;;;;8.75;1.50;;;13.20;90.70;;;;;;9182154;19;20018;-72
2023/12/25 02:15:16;;;;;;;8.15;1.52;;;13.20;90.70;;;;;;9182738;19;20052;-73
2023/12/25 02:18:23;;;;;;;10.55;2.45;;;13.20;90.70;;;;;;9180121;19;20018;-72
2023/12/25 02:21:41;;;;;;;13.75;2.00;;;13.10;90.70;;;;;;9179981;19;20007;-72
2023/12/25 02:24:52;;;;;;;13.95;4.22;;;13.20;90.70;;;;;;9182429;19;20031;-72
2023/12/25 02:28:06;;;;;;;3.20;0.60;;;13.10;90.70;;;;;;9182611;19;20019;-77
2023/12/25 02:31:13;;;;;;;7.97;1.70;;;13.10;90.70;;;;;;9181702;19;20472;-77
2023/12/25 02:34:31;;;;;;;10.23;1.60;;;13.10;90.80;;;;;;9182707;19;20025;-76
2023/12/25 02:37:42;;;;;;;8.65;1.65;;;13.10;90.60;;;;;;9178327;19;20033;-79
2023/12/25 02:40:52;;;;;;;13.63;1.73;;;13.10;90.70;;;;;;9178068;19;20015;-79
2023/12/25 02:44:04;;;;;;;8.73;1.70;;;13.10;90.60;;;;;;9181688;19;20025;-78
2023/12/25 02:47:15;;;;;;;7.78;1.48;;;13.10;90.70;;;;;;9180875;19;20019;-77
2023/12/25 02:50:26;;;;;;;5.45;1.50;;;13.10;90.60;;;;;;9182000;19;20391;-76
2023/12/25 02:53:41;;;;;;;8.57;2.10;;;13.10;90.60;;;;;;9179707;19;20018;-77
2023/12/25 02:56:48;;;;;;;13.38;1.90;;;13.10;90.60;;;;;;9180369;19;20014;-77
2023/12/25 03:00:00;;;;;;;8.13;1.65;;;13.10;90.60;;;;;;9180220;19;20505;-77
2023/12/25 03:03:06;;;;;;;8.30;1.67;;;13.10;90.50;;;;;;9175636;19;20015;-76
2023/12/25 03:06:14;;;;;;;12.85;1.80;;;13.00;90.50;;;;;;9179079;19;20026;-77
2023/12/25 03:09:21;;;;;;;9.27;1.63;;;13.10;90.50;;;;;;9179807;19;20014;-77
2023/12/25 03:12:28;;;;;;;11.07;1.85;;;13.00;90.50;;;;;;9179945;19;20015;-76
2023/12/25 03:15:37;;;;;;;7.93;1.70;;;13.00;90.50;;;;;;9179615;19;20030;-77
2023/12/25 03:18:45;;;;;;;9.90;2.35;;;13.00;90.40;;;;;;9180001;19;20011;-77
2023/12/25 03:21:51;;;;;;;9.90;2.97;;;13.00;90.40;;;;;;9178978;19;20018;-76
2023/12/25 03:25:00;;;;;;;4.45;1.23;;;13.00;90.40;;;;;;9181176;19;20026;-77
2023/12/25 03:28:07;;;;;;;9.48;1.45;;;13.00;90.40;;;;;;9177756;19;20023;-77
2023/12/25 03:31:17;;;;;;;10.13;2.42;;;13.00;90.40;;;;;;9178697;19;20022;-78
2023/12/25 03:34:22;;;;;;;13.75;2.13;;;13.00;90.40;;;;;;9178847;19;20376;-76
2023/12/25 03:37:30;;;;;;;16.38;2.45;;;13.00;90.40;;;;;;9177480;19;20799;-77
2023/12/25 03:40:35;;;;;;;13.13;1.85;;;13.00;90.40;;;;;;9179850;19;20040;-76
2023/12/25 03:43:43;;;;;;;6.95;1.83;;;13.00;90.30;;;;;;9175362;19;20506;-77
2023/12/25 03:46:51;;;;;;;9.25;1.50;;;13.00;90.30;;;;;;9179434;19;20022;-75
2023/12/25 03:49:59;;;;;;;9.75;1.85;;;13.00;90.30;;;;;;9177169;19;20019;-76
2023/12/25 03:53:05;;;;;;;13.07;2.28;;;13.00;90.30;;;;;;9176691;19;20095;-75
2023/12/25 03:56:18;;;;;;;8.77;1.55;;;12.90;90.30;;;;;;9177595;19;20014;-76
2023/12/25 03:59:25;;;;;;;10.30;1.83;;;12.90;90.20;;;;;;9178360;19;20011;-75
2023/12/25 04:02:36;;;;;;;8.02;1.70;;;13.00;90.30;;;;;;9170588;19;20512;-76
2023/12/25 04:05:41;;;;;;;8.73;1.20;;;12.90;90.20;;;;;;9178461;19;20025;-76
2023/12/25 04:08:50;;;;;;;11.63;2.13;;;12.90;90.20;;;;;;9177992;19;20019;-76
2023/12/25 04:11:55;;;;;;;8.57;1.55;;;12.90;90.20;;;;;;9171184;19;20443;-76
2023/12/25 04:15:03;;;;;;;9.95;1.30;;;12.90;90.20;;;;;;9179101;19;20024;-75
2023/12/25 04:18:11;;;;;;;10.75;1.67;;;12.90;90.20;;;;;;9176613;19;20055;-75
2023/12/25 04:21:26;;;;;;;4.85;0.88;;;12.90;90.30;;;;;;9175092;19;20018;-76
2023/12/25 04:24:32;;;;;;;9.18;1.20;;;12.90;90.20;;;;;;9175875;19;20618;-75
2023/12/25 04:27:40;;;;;;;7.47;1.70;;;12.90;90.20;;;;;;9177046;19;20022;-76
2023/12/25 04:30:45;;;;;;;8.30;1.88;;;12.90;90.20;;;;;;9176046;19;20022;-76
2023/12/25 04:33:56;;;;;;;7.32;1.40;;;12.90;90.20;;;;;;9175974;19;20015;-76
2023/12/25 04:37:01;;;;;;;10.05;1.60;;;12.80;90.20;;;;;;9177006;19;20019;-76
2023/12/25 04:40:10;;;;;;;9.20;1.98;;;12.80;90.20;;;;;;9175838;19;20025;-76
2023/12/25 04:43:16;;;;;;;10.77;1.60;;;12.80;90.20;;;;;;9172953;19;20089;-75
2023/12/25 04:46:26;;;;;;;7.43;1.88;;;12.80;90.20;;;;;;9175583;19;20038;-77
2023/12/25 04:49:34;;;;;;;6.18;1.30;;;12.80;90.20;;;;;;9176237;19;20349;-76
2023/12/25 04:52:43;;;;;;;4.20;1.23;;;12.80;90.20;;;;;;9176010;19;20018;-77
2023/12/25 04:55:51;;;;;;;6.63;1.67;;;13.00;90.30;;;;;;9176756;19;20021;-76
2023/12/25 04:59:07;;;;;;;10.07;1.70;;;12.80;90.20;;;;;;9177365;19;20017;-77
2023/12/25 05:02:27;;;;;;;9.65;2.00;;;12.80;90.20;;;;;;9172079;19;20318;-78
2023/12/25 05:05:38;;;;;;;6.63;1.60;;;12.80;90.20;;;;;;9174591;19;20029;-77
2023/12/25 05:08:52;;;;;;;12.43;1.70;;;12.80;90.20;;;;;;9177144;19;20022;-76
2023/12/25 05:12:00;;;;;;;11.73;2.03;;;12.80;90.20;;;;;;9175198;19;20083;-77
2023/12/25 05:15:17;;;;;;;12.70;2.30;;;12.80;90.20;;;;;;9175418;19;20051;-76
2023/12/25 05:18:32;;;;;;;15.23;2.13;;;12.80;90.20;;;;;;9173990;19;20016;-77
2023/12/25 05:21:41;;;;;;;9.90;1.67;;;12.80;90.30;;;;;;9175669;19;20090;-76
2023/12/25 05:24:48;;;;;;;11.63;2.15;;;12.80;90.30;;;;;;9173620;19;20610;-77
2023/12/25 05:27:54;;;;;;;8.82;1.25;;;12.70;90.20;;;;;;9175047;19;21497;-77
2023/12/25 05:31:02;;;;;;;7.35;1.70;;;12.80;90.20;;;;;;9172723;19;20026;-77
2023/12/25 05:34:10;;;;;;;12.13;1.88;;;12.80;90.30;;;;;;9172061;19;20016;-76
2023/12/25 05:37:20;;;;;;;9.85;1.33;;;12.70;90.20;;;;;;9175010;19;20070;-75
2023/12/25 05:40:26;;;;;;;6.70;1.52;;;12.70;90.20;;;;;;9173665;19;20070;-77
2023/12/25 05:43:34;;;;;;;7.45;1.63;;;12.70;90.20;;;;;;9171996;19;20030;-77
2023/12/25 05:46:40;;;;;;;10.57;1.60;;;12.70;90.20;;;;;;9174439;19;20025;-76
2023/12/25 05:49:47;;;;;;;8.85;1.40;;;12.70;90.20;;;;;;9172430;19;20042;-75
2023/12/25 05:52:55;;;;;;;9.70;1.77;;;12.70;90.20;;;;;;9173707;19;20017;-76
2023/12/25 05:56:03;;;;;;;5.75;1.35;;;12.70;90.20;;;;;;9172310;19;20649;-77
2023/12/25 05:59:15;;;;;;;10.15;1.48;;;12.70;90.30;;;;;;9174798;19;20018;-76
2023/12/25 06:02:25;;;;;;;8.75;1.50;;;12.70;90.20;;;;;;9171514;19;20845;-77
2023/12/25 06:05:31;;;;;;;8.13;1.95;;;12.70;90.20;;;;;;9173846;19;20078;-77
2023/12/25 06:08:42;;;;;;;7.18;2.08;;;12.70;90.20;;;;;;9171908;19;20018;-77
2023/12/25 06:11:47;;;;;;;12.68;1.98;;;12.60;90.20;;;;;;9171427;19;20024;-77
2023/12/25 06:14:55;;;;;;;6.03;1.15;;;12.60;90.20;;;;;;9174131;19;20018;-77
2023/12/25 06:18:01;;;;;;;19.10;1.48;;;12.60;90.20;;;;;;9173712;19;20014;-77
2023/12/25 06:21:09;;;;;;;11.38;1.80;;;12.60;90.20;;;;;;9173641;19;20681;-76
2023/12/25 06:24:17;;;;;;;8.82;1.90;;;12.60;90.20;;;;;;9171778;19;20022;-77
2023/12/25 06:27:25;;;;;;;6.78;1.70;;;12.00;90.00;;;;;;9170793;19;20348;-77
2023/12/25 06:30:32;;;;;;;8.68;1.65;;;12.60;90.20;;;;;;9172702;19;20015;-76
2023/12/25 06:33:40;;;;;;;8.55;1.58;;;12.60;90.10;;;;;;9174686;19;20033;-76
2023/12/25 06:36:54;;;;;;;11.35;1.48;;;12.60;90.10;;;;;;9178320;19;20019;-79
2023/12/25 06:40:08;;;;;;;4.30;1.40;;;12.60;90.20;;;;;;9182197;19;20031;-77
2023/12/25 06:43:13;;;;;;;10.75;1.48;;;12.60;90.10;;;;;;9182183;19;20421;-76
2023/12/25 06:46:21;;;;;;;12.90;2.15;;;12.60;90.10;;;;;;9182417;19;20022;-78
2023/12/25 06:49:27;;;;;;;7.65;1.30;;;12.60;90.10;;;;;;9181759;19;20066;-76
2023/12/25 06:52:34;;;;;;;8.48;1.80;;;12.60;90.10;;;;;;9179171;19;20018;-76
2023/12/25 06:55:43;;;;;;;10.50;2.85;;;12.60;90.10;;;;;;9181461;19;20042;-76
2023/12/25 06:58:56;;;;;;;12.43;1.63;;;12.60;90.30;;;;;;9179639;19;20038;-79
2023/12/25 07:02:02;;;;;;;8.10;2.03;;;12.60;90.10;;;;;;9177486;19;20511;-74
2023/12/25 07:05:11;;;;;;;8.07;1.73;;;12.60;90.10;;;;;;9177847;19;20452;-76
2023/12/25 07:08:29;;;;;;;4.50;1.08;;;12.50;90.00;;;;;;9179786;19;20415;-76
2023/12/25 07:11:45;;;;;;;13.75;1.40;;;12.60;90.00;;;;;;9179278;19;20492;-78
2023/12/25 07:14:58;;;;;;;14.25;1.98;;;12.60;90.10;;;;;;9180017;19;20025;-79
2023/12/25 07:18:09;;;;;;;9.83;2.03;;;12.60;90.00;;;;;;9180303;19;20338;-73
2023/12/25 07:21:15;;;;;;;11.07;1.63;;;12.50;90.00;;;;;;9180049;19;20609;-71
2023/12/25 07:24:30;;;;;;;7.13;1.67;;;12.50;90.00;;;;;;9179136;19;20035;-71
2023/12/25 07:27:40;;;;;;;9.23;1.92;;;12.50;90.00;;;;;;9179845;19;20038;-71
2023/12/25 07:30:48;;;;;;;10.93;1.85;;;12.50;90.00;;;;;;9177651;19;20037;-72
2023/12/25 07:33:59;;;;;;;15.57;2.50;;;12.50;90.20;;;;;;9179372;19;20022;-74
2023/12/25 07:37:26;;;;;;;13.38;1.75;;;12.50;90.00;;;;;;9178092;19;20029;-73
2023/12/25 07:40:33;;;;;;;13.00;2.30;;;12.50;89.90;;;;;;9178632;19;20023;-71
2023/12/25 07:43:44;;;;;;;10.68;1.65;;;12.50;90.00;;;;;;9176799;19;20040;-73
2023/12/25 07:46:52;;;;;;;14.82;2.25;;;12.50;90.00;;;;;;9176944;19;20113;-71
2023/12/25 07:50:04;;;;;;;10.30;1.50;;;12.50;89.90;;;;;;9179946;19;20014;-74
2023/12/25 07:53:10;;;;;;;11.30;1.50;;;12.50;89.90;;;;;;9176007;19;20341;-71
2023/12/25 07:56:27;;;;;;;6.70;1.20;;;12.50;89.90;;;;;;9178055;19;20014;-72
2023/12/25 07:59:35;;;;;;;7.63;1.80;;;12.50;89.80;;;;;;9179537;19;20350;-74
2023/12/25 08:02:57;;;;;;;9.88;1.48;;;12.40;89.80;;;;;;9171873;19;20480;-74
2023/12/25 08:06:11;;;;;;;10.82;1.92;;;12.40;89.80;;;;;;9173755;19;20107;-71
2023/12/25 08:09:23;;;;;;;14.48;2.03;;;12.40;89.80;;;;;;9177083;19;20373;-73
2023/12/25 08:12:29;;;;;;;13.30;1.83;;;12.40;89.80;;;;;;9176435;19;20024;-72
2023/12/25 08:15:39;;;;;;;9.00;1.70;;;12.40;89.70;;;;;;9177358;19;20368;-72
2023/12/25 08:18:45;;;;;;;8.27;1.98;;;12.40;89.70;;;;;;9173838;19;20014;-73
2023/12/25 08:21:57;;;;;;;11.18;2.05;;;12.40;89.70;;;;;;9177488;19;20021;-73
2023/12/25 08:25:08;;;;;;;17.15;1.85;;;12.40;89.60;;;;;;9176138;19;20011;-73
2023/12/25 08:28:16;;;;;;;12.07;2.03;;;12.40;89.70;;;;;;9176867;19;20043;-71
2023/12/25 08:31:24;;;;;;;8.48;1.40;;;12.40;89.70;;;;;;9177435;19;20025;-72
2023/12/25 08:34:37;;;;;;;9.48;1.65;;;12.40;89.60;;;;;;9177193;19;20820;-73
2023/12/25 08:37:52;;;;;;;17.27;2.25;;;12.30;89.60;;;;;;9174351;19;20514;-72
2023/12/25 08:41:00;;;;;;;12.45;1.75;;;12.40;89.60;;;;;;9176220;19;20104;-73
2023/12/25 08:44:08;;;;;;;10.13;2.42;;;12.30;89.60;;;;;;9176539;19;20026;-73
2023/12/25 08:47:19;;;;;;;16.08;1.90;;;12.30;89.70;;;;;;9176866;19;20018;-72
2023/12/25 08:50:24;;;;;;;9.30;1.83;;;12.30;89.60;;;;;;9176096;19;20022;-73
2023/12/25 08:53:34;;;;;;;8.57;1.70;;;12.30;89.60;;;;;;9173840;19;20409;-71
2023/12/25 08:56:39;;;;;;;18.85;2.15;;;12.30;89.60;;;;;;9175449;19;20023;-71
2023/12/25 08:59:49;;;;;;;15.65;1.60;;;12.30;89.60;;;;;;9174082;19;20016;-72
2023/12/25 09:02:58;;;;;;;9.40;1.73;;;12.30;89.60;;;;;;9171036;19;20029;-71
2023/12/25 09:06:09;;;;;;;8.05;2.92;;;12.30;89.60;;;;;;9172121;19;20010;-70
2023/12/25 09:09:15;;;;;;;8.32;1.45;;;12.30;89.70;;;;;;9172418;19;20463;-71
2023/12/25 09:12:23;;;;;;;39.33;18.88;;;12.30;89.70;;;;;;9172067;19;20377;-71
2023/12/25 09:15:29;;;;;;;25.75;10.15;;;12.30;89.70;;;;;;9170504;19;20018;-71
2023/12/25 09:18:40;;;;;;;31.67;13.68;;;12.30;89.60;;;;;;9170547;19;20022;-72
2023/12/25 09:21:46;;;;;;;15.93;3.75;;;12.30;89.60;;;;;;9171830;19;20380;-71
2023/12/25 09:24:54;;;;;;;5.78;2.17;;;12.30;90.00;;;;;;9172718;19;20015;-72
2023/12/25 09:28:01;;;;;;;3.90;1.95;;;12.30;89.60;;;;;;9173748;19;20023;-71
2023/12/25 09:31:08;;;;;;;11.23;2.88;;;12.30;89.60;;;;;;9150475;19;20022;-74
2023/12/25 09:34:19;;;;;;;9.25;2.05;;;12.30;89.60;;;;;;9171576;19;20038;-71
2023/12/25 09:37:28;;;;;;;9.07;1.67;;;12.30;89.60;;;;;;9173530;19;20007;-75
2023/12/25 09:40:33;;;;;;;8.02;1.50;;;12.30;89.50;;;;;;9173206;19;20019;-74
2023/12/25 09:43:41;;;;;;;14.60;2.42;;;12.30;89.60;;;;;;9174512;19;20014;-75
2023/12/25 09:46:47;;;;;;;9.18;1.95;;;12.40;89.90;;;;;;9171247;19;20060;-75
2023/12/25 09:49:58;;;;;;;10.02;1.40;;;12.40;89.70;;;;;;9171949;19;20063;-76
2023/12/25 09:53:03;;;;;;;6.95;1.60;;;12.40;89.70;;;;;;9172780;19;20390;-75
2023/12/25 09:56:14;;;;;;;14.48;2.80;;;12.40;89.60;;;;;;9172175;19;20007;-76
2023/12/25 09:59:20;;;;;;;15.85;3.78;;;12.40;89.60;;;;;;9173543;19;20378;-74
2023/12/25 10:02:31;;;;;;;8.70;2.28;;;12.50;89.60;;;;;;9169293;19;20377;-76
2023/12/25 10:05:39;;;;;;;7.18;1.50;;;12.50;89.50;;;;;;9170444;19;20135;-76
2023/12/25 10:08:46;;;;;;;8.63;1.55;;;12.50;89.40;;;;;;9172999;19;20011;-76
2023/12/25 10:11:53;;;;;;;13.45;2.65;;;12.50;89.40;;;;;;9177726;19;20014;-76
2023/12/25 10:15:00;;;;;;;10.80;2.20;;;12.50;89.40;;;;;;9180315;19;20021;-74
2023/12/25 10:18:08;;;;;;;9.48;2.25;;;12.60;89.40;;;;;;9182628;19;20111;-75
2023/12/25 10:21:19;;;;;;;7.15;1.70;;;12.50;89.40;;;;;;9181627;19;20022;-76
2023/12/25 10:24:29;;;;;;;13.63;1.80;;;12.60;89.40;;;;;;9180579;19;20052;-75
2023/12/25 10:27:37;;;;;;;7.80;1.73;;;12.60;89.30;;;;;;9174665;19;20022;-76
2023/12/25 10:30:43;;;;;;;13.95;2.75;;;12.60;89.30;;;;;;9178698;19;20055;-74
2023/12/25 10:34:00;;;;;;;9.05;2.33;;;12.60;89.30;;;;;;9179536;19;20018;-75
2023/12/25 10:37:13;;;;;;;12.23;2.92;;;12.70;89.30;;;;;;9178626;19;20022;-75
2023/12/25 10:40:22;;;;;;;7.80;2.20;;;12.70;89.30;;;;;;9175444;19;20014;-75
2023/12/25 10:43:28;;;;;;;16.55;2.55;;;12.70;89.30;;;;;;9176412;19;20014;-76
2023/12/25 10:46:37;;;;;;;9.63;2.22;;;12.70;89.30;;;;;;9179235;19;20007;-76
2023/12/25 10:49:45;;;;;;;8.57;1.60;;;12.70;89.90;;;;;;9179961;19;20043;-76
2023/12/25 10:52:59;;;;;;;8.98;1.95;;;12.70;89.30;;;;;;9178243;19;20021;-75
2023/12/25 10:56:06;;;;;;;9.55;2.17;;;12.80;89.30;;;;;;9179915;19;20025;-76
2023/12/25 10:59:17;;;;;;;13.73;2.33;;;12.80;89.30;;;;;;9175300;19;20638;-76
2023/12/25 11:02:24;;;;;;;10.63;2.63;;;12.80;89.30;;;;;;9174103;19;20483;-76
2023/12/25 11:05:33;;;;;;;6.90;1.63;;;12.80;89.30;;;;;;9178842;19;20018;-76
2023/12/25 11:08:43;;;;;;;10.93;1.88;;;12.80;89.20;;;;;;9174274;19;20015;-76
2023/12/25 11:11:51;;;;;;;5.45;1.33;;;12.90;89.20;;;;;;9176391;19;20353;-76
2023/12/25 11:14:58;;;;;;;16.02;1.77;;;12.90;89.30;;;;;;9176424;19;20666;-76
2023/12/25 11:18:09;;;;;;;13.82;1.80;;;12.90;89.90;;;;;;9176703;19;20017;-75
2023/12/25 11:21:18;;;;;;;8.50;1.95;;;12.90;89.30;;;;;;9176373;19;20022;-76
2023/12/25 11:24:32;;;;;;;9.82;2.05;;;12.90;89.30;;;;;;9178849;19;20017;-75
2023/12/25 11:27:39;;;;;;;8.65;2.00;;;12.90;89.30;;;;;;9176985;19;20031;-76
2023/12/25 11:30:46;;;;;;;10.82;2.10;;;13.00;89.30;;;;;;9177413;19;20014;-76
2023/12/25 11:33:53;;;;;;;10.75;1.70;;;13.00;89.30;;;;;;9174555;19;20591;-76
2023/12/25 11:37:03;;;;;;;7.88;1.40;;;13.00;89.20;;;;;;9176568;19;20053;-76
2023/12/25 11:40:12;;;;;;;8.43;1.50;;;13.00;89.20;;;;;;9177889;19;20439;-76
2023/12/25 11:43:21;;;;;;;11.15;2.20;;;13.00;89.10;;;;;;9177934;19;20011;-76
2023/12/25 11:46:30;;;;;;;7.00;1.55;;;13.00;89.30;;;;;;9174951;19;20493;-76
2023/12/25 11:49:40;;;;;;;15.13;1.88;;;13.00;89.40;;;;;;9176095;19;20033;-76
2023/12/25 11:52:53;;;;;;;6.95;1.52;;;13.00;89.40;;;;;;9178638;19;20082;-74
2023/12/25 11:56:03;;;;;;;8.65;2.17;;;13.10;89.60;;;;;;9177386;19;20015;-76
2023/12/25 11:59:10;;;;;;;7.15;1.80;;;13.10;89.60;;;;;;9175650;19;20028;-75
2023/12/25 12:02:21;;;;;;;8.55;2.58;;;13.10;89.60;;;;;;9174522;19;20022;-76
2023/12/25 12:05:27;;;;;;;8.15;1.42;;;13.10;89.60;;;;;;9175101;19;20018;-75
2023/12/25 12:08:36;;;;;;;4.38;1.25;;;13.10;89.60;;;;;;9169480;19;20013;-75
2023/12/25 12:11:45;;;;;;;10.55;1.70;;;13.10;89.60;;;;;;9169647;19;20022;-76
2023/12/25 12:14:52;;;;;;;7.30;1.60;;;13.20;89.50;;;;;;9174163;19;20042;-76
2023/12/25 12:17:59;;;;;;;5.47;1.25;;;13.20;89.50;;;;;;9175215;19;20017;-75
2023/12/25 12:21:07;;;;;;;3.88;1.38;;;13.10;89.40;;;;;;9175331;19;20018;-75
2023/12/25 12:24:27;;;;;;;4.50;1.55;;;13.20;89.50;;;;;;9175917;19;20835;-75
2023/12/25 12:27:37;;;;;;;4.32;1.80;;;13.20;89.50;;;;;;9174161;19;20010;-75
2023/12/25 12:30:43;;;;;;;7.45;1.90;;;13.20;89.50;;;;;;9174138;19;20026;-75
2023/12/25 12:33:51;;;;;;;5.20;1.77;;;13.20;89.40;;;;;;9172779;19;20025;-77
2023/12/25 12:37:01;;;;;;;8.77;1.70;;;13.10;89.40;;;;;;9175911;19;20018;-76
2023/12/25 12:40:09;;;;;;;5.00;1.70;;;13.20;89.60;;;;;;9173606;19;20015;-75
2023/12/25 12:43:21;;;;;;;6.53;1.80;;;13.20;89.60;;;;;;9175022;19;20022;-75
2023/12/25 12:46:29;;;;;;;12.65;2.28;;;13.20;89.60;;;;;;9175613;19;20010;-75
2023/12/25 12:49:35;;;;;;;13.73;5.68;;;13.20;89.70;;;;;;9175113;19;20018;-75
2023/12/25 12:52:43;;;;;;;8.18;2.50;;;13.20;89.70;;;;;;9174440;19;20014;-75
2023/12/25 12:55:49;;;;;;;11.63;3.00;;;13.20;89.60;;;;;;9173791;19;20014;-75
2023/12/25 12:58:59;;;;;;;10.75;2.33;;;13.20;89.70;;;;;;9171498;19;20022;-75
2023/12/25 13:02:04;;;;;;;5.72;1.70;;;13.20;89.70;;;;;;9171554;19;20018;-75
2023/12/25 13:05:12;;;;;;;4.18;1.75;;;13.20;89.70;;;;;;9172082;19;20018;-74
2023/12/25 13:08:19;;;;;;;9.13;1.92;;;13.20;89.70;;;;;;9172634;19;20022;-75
2023/12/25 13:11:27;;;;;;;7.13;2.58;;;13.20;89.60;;;;;;9172389;19;20356;-75
2023/12/25 13:14:35;;;;;;;14.75;1.77;;;13.20;89.70;;;;;;9174384;19;20052;-75
2023/12/25 13:17:43;;;;;;;9.60;1.75;;;13.20;89.70;;;;;;9173418;19;20018;-74
2023/12/25 13:20:49;;;;;;;8.13;2.10;;;13.20;89.70;;;;;;9175223;19;20018;-75
2023/12/25 13:23:57;;;;;;;4.80;1.30;;;13.20;89.60;;;;;;9170530;19;20090;-75
2023/12/25 13:27:05;;;;;;;6.75;1.98;;;13.20;89.50;;;;;;9170846;19;20022;-75
2023/12/25 13:30:16;;;;;;;6.28;1.50;;;13.20;89.50;;;;;;9175022;19;20014;-74
2023/12/25 13:33:22;;;;;;;7.63;1.85;;;13.20;89.40;;;;;;9173969;19;20010;-75
2023/12/25 13:36:30;;;;;;;9.60;3.83;;;13.20;89.40;;;;;;9175703;19;20142;-76
2023/12/25 13:39:36;;;;;;;5.65;1.85;;;13.20;89.30;;;;;;9174240;19;20072;-75
2023/12/25 13:42:45;;;;;;;6.20;1.50;;;13.20;89.30;;;;;;9175806;19;20025;-75
2023/12/25 13:45:54;;;;;;;5.80;1.65;;;13.20;89.20;;;;;;9181942;19;20476;-75
2023/12/25 13:49:03;;;;;;;4.55;1.25;;;13.20;89.20;;;;;;9178343;19;20031;-74
2023/12/25 13:52:09;;;;;;;6.32;1.80;;;13.20;89.20;;;;;;9179699;19;20501;-75
2023/12/25 13:55:18;;;;;;;7.95;2.03;;;13.20;89.10;;;;;;9177152;19;20021;-75
2023/12/25 13:58:23;;;;;;;6.82;1.45;;;13.20;89.20;;;;;;9180121;19;20061;-75
2023/12/25 14:01:34;;;;;;;11.13;1.55;;;13.20;89.10;;;;;;9181854;19;20380;-74
2023/12/25 14:04:40;;;;;;;12.60;1.85;;;13.20;89.00;;;;;;9177552;19;20015;-75
2023/12/25 14:07:48;;;;;;;7.13;1.73;;;13.20;89.00;;;;;;9177855;19;20013;-75
2023/12/25 14:10:53;;;;;;;6.72;1.73;;;13.10;88.90;;;;;;9179061;19;20022;-74
2023/12/25 14:14:04;;;;;;;5.35;1.88;;;13.10;88.80;;;;;;9181293;19;20018;-74
2023/12/25 14:17:13;;;;;;;9.48;2.03;;;13.10;88.80;;;;;;9183377;19;20018;-74
2023/12/25 14:20:22;;;;;;;4.80;1.33;;;13.10;88.80;;;;;;9179152;19;20018;-77
2023/12/25 14:23:28;;;;;;;11.00;2.85;;;13.10;88.80;;;;;;9181293;19;20108;-75
2023/12/25 14:26:35;;;;;;;9.13;1.38;;;13.00;88.70;;;;;;9177665;19;20007;-75
2023/12/25 14:29:41;;;;;;;3.92;1.30;;;13.00;88.80;;;;;;9177467;19;20484;-75
2023/12/25 14:32:52;;;;;;;6.35;1.35;;;13.00;88.80;;;;;;9178046;19;20021;-75
2023/12/25 14:35:59;;;;;;;7.47;1.35;;;12.90;88.70;;;;;;9179794;19;20018;-75
2023/12/25 14:39:06;;;;;;;8.65;1.30;;;12.90;88.80;;;;;;9177599;19;20678;-75
2023/12/25 14:42:12;;;;;;;6.85;1.38;;;12.90;88.70;;;;;;9178179;19;20015;-75
2023/12/25 14:45:20;;;;;;;6.75;1.50;;;12.90;88.70;;;;;;9181898;19;20011;-75
2023/12/25 14:48:29;;;;;;;9.50;2.10;;;12.90;88.70;;;;;;9178392;19;20048;-76
2023/12/25 14:51:37;;;;;;;3.60;0.98;;;12.90;88.70;;;;;;9175328;19;20018;-75
2023/12/25 14:54:42;;;;;;;2.55;0.98;;;12.90;89.40;;;;;;9179253;19;20018;-75
2023/12/25 14:57:50;;;;;;;4.93;1.83;;;12.80;88.70;;;;;;9168957;19;20023;-77
2023/12/25 15:00:57;;;;;;;1.90;0.95;;;12.80;88.70;;;;;;9180372;19;20022;-75
2023/12/25 15:04:07;;;;;;;3.20;0.82;;;12.80;88.70;;;;;;9172941;19;20467;-75
2023/12/25 15:07:14;;;;;;;8.35;1.73;;;12.80;88.70;;;;;;9174143;19;20018;-75
2023/12/25 15:10:21;;;;;;;8.30;1.13;;;12.80;88.70;;;;;;9174795;19;20357;-75
2023/12/25 15:13:27;;;;;;;3.28;0.95;;;12.80;88.70;;;;;;9177599;19;20430;-75
2023/12/25 15:16:35;;;;;;;6.03;1.38;;;12.70;88.60;;;;;;9178975;19;20035;-75
2023/12/25 15:19:43;;;;;;;9.68;1.35;;;12.70;88.60;;;;;;9179580;19;20018;-75
2023/12/25 15:23:06;;;;;;;9.15;2.05;;;12.70;88.60;;;;;;9179679;19;20029;-76
2023/12/25 15:26:12;;;;;;;5.18;1.83;;;12.70;88.70;;;;;;9178045;19;20479;-75
2023/12/25 15:29:20;;;;;;;4.97;1.30;;;12.70;88.70;;;;;;9174180;19;20018;-74
2023/12/25 15:32:25;;;;;;;6.35;1.90;;;12.70;88.70;;;;;;9177014;19;20025;-75
2023/12/25 15:35:36;;;;;;;6.55;1.77;;;12.60;88.60;;;;;;9176806;19;20480;-75
2023/12/25 15:38:42;;;;;;;7.55;1.25;;;12.60;88.60;;;;;;9178910;19;20022;-74
2023/12/25 15:41:49;;;;;;;7.47;1.25;;;12.60;88.60;;;;;;9178047;19;20018;-75
2023/12/25 15:44:55;;;;;;;4.20;1.27;;;12.60;88.60;;;;;;9167099;19;20051;-76
2023/12/25 15:48:04;;;;;;;5.30;1.48;;;12.50;88.50;;;;;;9174136;19;20010;-75
2023/12/25 15:51:13;;;;;;;13.00;1.63;;;12.60;88.70;;;;;;9176742;19;20019;-75
2023/12/25 15:54:26;;;;;;;6.20;1.23;;;12.60;88.60;;;;;;9177113;19;20472;-75
2023/12/25 15:57:32;;;;;;;7.03;1.55;;;12.50;88.60;;;;;;9167510;19;20103;-75
2023/12/25 16:00:40;;;;;;;5.90;1.45;;;12.50;88.60;;;;;;9175062;19;20007;-74
2023/12/25 16:03:45;;;;;;;13.82;1.60;;;12.50;88.60;;;;;;9171975;19;20048;-75
2023/12/25 16:06:58;;;;;;;6.38;1.63;;;12.50;88.70;;;;;;9172063;19;21176;-74
2023/12/25 16:10:04;;;;;;;5.05;1.30;;;12.50;88.70;;;;;;9170730;19;20448;-74
2023/12/25 16:13:11;;;;;;;4.55;1.58;;;12.50;88.60;;;;;;9174360;19;20010;-75
2023/12/25 16:16:17;;;;;;;8.85;2.15;;;12.40;88.60;;;;;;9176745;19;20379;-74